Airfield :
LOGIN :

Register | Disclaimer

   EN    FR    IT 

 










Legend :    VFR   Marginal VFR   IFR   Intensive IFR   Very Intensive IFR
Visi :
Ceiling :
>= 8 km
>= 3000ft
5 to 8 km
1000 to 3000 ft
1500m to 5 km
500 to 1000 ft
800 to 1500m
200 to 500 ft
< 800m
< 200 ft
Symbols :   Thunderstorms  Fog  Heavy snow  Heavy precipitations  Wind > 20 kt
SIGMETs :     Misc.  Thunderstorms  Icing  Turbulence  Mountain Waves  Volcanic Ashes







- Airport Elevation : 1197 ft
- IATA code : SPM


ETAD - Spangdahlem Ab

CURRENT METAR :
  • 201619Z 09005KT 1800 -SN BR OVC003 00/M01 A2945 RMK AO2A SLP981 TSNO $

EXPIRED METARs :
  • 201556Z 09005KT 1400 R23/1300VP1500 -SN BR VV004 00/M01 A2946 RMK AO2A SLP985 P0002 T00001006 TSNO $
  • 201505Z 09005KT 1200 R23/1100VP1500 -SN BR VV004 00/M01 A2948 RMK AO2A CIG 003 RWY05 SLP992 TSNO $
  • 201456Z 09003KT 0800 R23/0800V1100 SN FG VV004 00/M01 A2948 RMK AO2A CIG 003 RWY05 SLP992 P0006 60000 4001 T00001007 57040 TSNO $
  • 201426Z 09003KT 0800 R23/0900V1100 -SN FG VV004 00/M01 A2949 RMK AO2A SLP995 TSNO $
  • 201358Z 10003KT 0600 R23/0550V0900 SN FG VV004 00/M01 A2951 RMK SLP002 P0002 T00001007 TSNO $

TAF AMD TAF ETAD
Valid from the 20 at 15:00 until the 21 at 17:00 UTC


201501Z 2015/2117 VRB06KT 0800 -SN FG OVC004 610109 QNH2948INS
BECMG 2016/2017 VRB06KT 4000 -SN OVC009 610109 QNH2947INS
BECMG 2021/2022 31009KT 9000 SHRA BKN015 610208 QNH2958INS
BECMG 2100/2101 30006KT 3200 BR BKN015 610208 QNH2972INS
BECMG 2106/2107 30009KT 5000 BR BKN015 610208 QNH2983INS TX01/2015Z TN00/2023Z
No reported NOTAMs for that airfield.
1 SIGMET reported for the Langen FIR (EDGG) :
 
Severe icing
EDGG SIGMET 2 VALID 201400/201800 EDZF
EDGG LANGEN FIR SEV ICE FCST WI N5206 E00755 - N5121 E01028 - N5015 E01016 - N4904 E00756 - N4906 E00756 - N4937 E00622 - N5153 E00608 - N5206 E00755 2000FT/FL160 MOV NE NC=



MET'MAP, your aeronautical weather chart ! - Copyright ORBIFLY December 2007 - Disclaimer

ORBIFLY MET'MAP TEAM :

Programming & Development : Alexandra Zaïnal
Concept & Development : Baudouin d'Aumeries
Co-Development & Prog : Marc-Olivier Méhu
Technical & hardware support : Manuel Goepfert

Contact : metmap@orbifly.com




SOURCES & CREDITS :

   NOAA